Time;durP1;ratioP1;P1;durP2;ratioP2;P2;SDS_P1;SDS_P2;PMS_P1;PMS_P2;Temp;Humidity;BMP_temperature;BMP_pressure;BME280_temperature;BME280_humidity;BME280_pressure;Samples;Min_cycle;Max_cycle;Signal;HPM_P1;HPM_P2
2021/04/08 00:01:56;;;;;;;2.45;1.20;;;;;;;23.46;36.96;94829.28;5028368;28;20039;-74
2021/04/08 00:04:22;;;;;;;2.20;1.40;;;;;;;23.42;36.84;94824.16;5028570;28;20064;-73
2021/04/08 00:06:47;;;;;;;2.28;1.50;;;;;;;23.50;36.48;94840.66;5028206;28;20025;-74
2021/04/08 00:09:13;;;;;;;1.80;1.27;;;;;;;23.48;36.55;94829.50;5043960;28;20143;-74
2021/04/08 00:11:38;;;;;;;1.92;1.70;;;;;;;23.40;36.44;94815.00;5028502;28;20026;-74
2021/04/08 00:14:04;;;;;;;2.00;1.35;;;;;;;23.46;36.98;94834.75;5028286;28;20029;-74
2021/04/08 00:16:29;;;;;;;1.48;1.00;;;;;;;23.46;36.77;94834.75;5027966;28;20026;-74
2021/04/08 00:18:55;;;;;;;1.95;1.30;;;;;;;23.47;36.70;94831.50;5028351;28;20025;-74
2021/04/08 00:21:20;;;;;;;2.05;1.52;;;;;;;23.49;37.00;94833.72;5028415;28;20017;-74
2021/04/08 00:23:45;;;;;;;1.98;1.17;;;;;;;23.48;36.86;94832.22;5044011;28;20029;-74
2021/04/08 00:26:11;;;;;;;1.77;1.30;;;;;;;23.47;36.86;94819.88;5028205;28;20036;-74
2021/04/08 00:28:36;;;;;;;2.30;1.48;;;;;;;23.46;36.97;94834.75;5028011;28;20490;-74
2021/04/08 00:31:02;;;;;;;2.22;1.42;;;;;;;23.46;36.64;94829.28;5029547;28;20021;-74
2021/04/08 00:33:27;;;;;;;2.78;1.60;;;;;;;23.45;36.55;94838.72;5031990;28;20116;-73
2021/04/08 00:35:53;;;;;;;2.25;1.58;;;;;;;23.43;36.91;94835.78;5031998;28;20451;-74
2021/04/08 00:38:18;;;;;;;1.80;1.20;;;;;;;23.38;36.95;94828.41;5031888;28;20017;-73
2021/04/08 00:40:44;;;;;;;1.95;1.38;;;;;;;23.41;36.62;94835.56;5032108;28;20512;-74
2021/04/08 00:43:09;;;;;;;1.92;1.33;;;;;;;23.43;36.94;94841.22;5031361;28;20091;-74
2021/04/08 00:45:35;;;;;;;1.98;1.30;;;;;;;23.46;36.94;94834.75;5047134;28;20104;-74
2021/04/08 00:48:00;;;;;;;2.40;1.70;;;;;;;23.46;36.88;94834.75;5031862;28;20033;-74
2021/04/08 00:50:26;;;;;;;2.13;1.52;;;;;;;23.37;36.79;94827.66;5031641;28;20029;-74
2021/04/08 00:52:58;;;;;;;1.95;1.30;;;;;;;23.43;36.79;94841.22;5031453;28;20029;-74
2021/04/08 00:55:33;;;;;;;2.28;1.40;;;;;;;23.37;36.97;94832.38;5030442;28;20033;-74
2021/04/08 00:57:58;;;;;;;1.80;1.10;;;;;;;23.40;36.68;94847.69;5030238;28;20579;-74
2021/04/08 01:00:25;;;;;;;1.98;1.48;;;;;;;23.38;36.92;94839.31;5046472;28;20033;-74
2021/04/08 01:02:50;;;;;;;1.90;1.38;;;;;;;23.36;37.05;94838.34;5030402;28;20532;-74
2021/04/08 01:05:16;;;;;;;1.98;1.52;;;;;;;23.37;37.00;94843.28;5031062;28;20041;-74
2021/04/08 01:07:41;;;;;;;1.77;1.30;;;;;;;23.35;36.97;94840.34;5031304;28;20021;-74
2021/04/08 01:10:08;;;;;;;2.03;1.40;;;;;;;23.32;36.95;94827.75;5029474;28;20034;-74
2021/04/08 01:12:34;;;;;;;2.28;1.50;;;;;;;23.36;36.72;94828.16;5028914;28;20515;-74
2021/04/08 01:14:59;;;;;;;1.42;1.23;;;;;;;23.28;36.89;94819.09;5011716;28;20040;-74
2021/04/08 01:17:47;;;;;;;1.98;1.30;;;;;;;23.37;37.00;94826.94;5026717;28;20053;-74
2021/04/08 01:20:47;;;;;;;1.58;1.45;;;;;;;23.35;36.69;94823.97;5010338;28;20033;-74
2021/04/08 01:23:33;;;;;;;1.70;1.40;;;;;;;23.34;36.94;94838.84;5011112;28;20029;-74
2021/04/08 01:26:11;;;;;;;1.65;1.30;;;;;;;23.35;36.81;94834.88;5011327;28;20041;-73
2021/04/08 01:28:40;;;;;;;1.60;1.33;;;;;;;23.19;36.53;94805.09;5017703;28;20526;-73
2021/04/08 01:31:07;;;;;;;1.83;1.30;;;;;;;23.33;36.81;94837.38;5029837;28;20037;-73
2021/04/08 01:33:41;;;;;;;1.90;1.27;;;;;;;23.36;36.55;94841.78;5029920;28;20033;-73
2021/04/08 01:36:15;;;;;;;1.40;1.17;;;;;;;23.37;36.50;94842.53;5029585;28;20034;-73
2021/04/08 01:38:46;;;;;;;1.60;1.27;;;;;;;23.29;36.76;94841.63;5030055;28;20030;-73
2021/04/08 01:41:11;;;;;;;1.73;1.20;;;;;;;23.08;36.77;94822.31;5029777;28;20039;-74
2021/04/08 01:43:39;;;;;;;2.08;1.50;;;;;;;23.22;36.72;94840.22;5029438;28;20033;-75
2021/04/08 01:46:04;;;;;;;2.20;1.55;;;;;;;23.23;36.54;94833.53;5046081;28;20048;-74
2021/04/08 01:48:29;;;;;;;1.48;1.23;;;;;;;23.20;36.95;94834.56;5029250;28;20033;-74
2021/04/08 01:50:56;;;;;;;1.55;1.30;;;;;;;23.24;36.84;94845.16;5045817;28;20033;-74
2021/04/08 01:53:21;;;;;;;2.22;1.20;;;;;;;23.22;36.74;94848.41;5029313;28;20494;-74
2021/04/08 01:55:49;;;;;;;1.60;1.40;;;;;;;23.19;36.66;94846.69;5028768;28;20025;-74
2021/04/08 01:58:14;;;;;;;1.40;1.23;;;;;;;23.25;37.05;94852.81;5029401;28;20029;-74
2021/04/08 02:00:39;;;;;;;2.17;1.35;;;;;;;23.24;36.95;94843.16;5030226;28;20027;-74
2021/04/08 02:03:05;;;;;;;1.73;1.40;;;;;;;23.25;36.80;94861.00;5012568;28;20048;-74
2021/04/08 02:05:30;;;;;;;2.05;1.48;;;;;;;23.24;36.91;94856.78;5045735;28;20554;-74
2021/04/08 02:07:57;;;;;;;2.15;1.40;;;;;;;23.20;36.67;94864.53;5045557;28;20168;-75
2021/04/08 02:10:23;;;;;;;3.03;1.17;;;;;;;23.26;36.84;94865.19;5028574;28;20112;-73
2021/04/08 02:12:49;;;;;;;1.98;1.42;;;;;;;23.26;36.67;94876.09;5028758;28;20030;-75
2021/04/08 02:15:17;;;;;;;1.92;1.20;;;;;;;23.26;36.80;94869.91;5029037;28;20147;-74
2021/04/08 02:17:43;;;;;;;1.60;1.30;;;;;;;23.26;36.77;94873.38;5030256;28;20028;-74
2021/04/08 02:20:13;;;;;;;2.50;1.48;;;;;;;23.23;36.81;94871.69;5012378;28;20017;-74
2021/04/08 02:22:42;;;;;;;2.10;1.52;;;;;;;23.25;36.68;94873.88;5028878;28;20021;-74
2021/04/08 02:25:08;;;;;;;1.70;1.40;;;;;;;23.25;37.17;94885.50;5029842;28;20406;-75
2021/04/08 02:27:36;;;;;;;2.72;1.50;;;;;;;23.21;36.48;94879.59;5012204;28;20505;-74
2021/04/08 02:30:04;;;;;;;1.98;1.15;;;;;;;23.22;36.46;94886.53;5012235;28;20082;-74
2021/04/08 02:32:29;;;;;;;1.50;1.30;;;;;;;23.22;36.67;94886.53;5045174;28;20083;-74
2021/04/08 02:34:55;;;;;;;1.63;1.20;;;;;;;23.07;36.84;94853.50;5044967;28;20511;-74
2021/04/08 02:37:20;;;;;;;2.28;1.52;;;;;;;23.22;36.92;94883.81;5028466;28;20083;-73
2021/04/08 02:39:46;;;;;;;1.60;1.15;;;;;;;23.25;36.75;94895.69;5011876;28;20022;-74
2021/04/08 02:42:11;;;;;;;1.77;1.25;;;;;;;23.24;36.76;94889.47;5027782;28;20037;-74
2021/04/08 02:44:37;;;;;;;2.03;1.30;;;;;;;23.25;36.85;94890.97;5028802;28;20033;-74
2021/04/08 02:47:02;;;;;;;1.65;1.30;;;;;;;23.22;36.98;94886.53;5024562;28;20033;-73
2021/04/08 02:49:28;;;;;;;2.15;1.30;;;;;;;23.10;36.61;94868.81;5029150;28;20029;-74
2021/04/08 02:51:58;;;;;;;1.98;1.40;;;;;;;23.19;36.56;94887.56;5010890;28;20037;-72
2021/04/08 02:54:41;;;;;;;1.63;1.40;;;;;;;23.20;36.75;94891.78;5027426;28;20068;-74
2021/04/08 02:57:09;;;;;;;1.95;1.45;;;;;;;23.20;37.06;94899.94;5029404;28;20072;-74
2021/04/08 02:59:55;;;;;;;1.70;1.30;;;;;;;23.23;36.76;94904.38;5028071;28;20017;-74
2021/04/08 03:02:23;;;;;;;1.50;1.10;;;;;;;23.12;37.01;94893.59;5028207;28;20030;-73
2021/04/08 03:04:53;;;;;;;1.92;1.30;;;;;;;23.13;36.54;94894.31;5011669;28;20052;-74
2021/04/08 03:07:21;;;;;;;;;;;;;;;23.21;36.85;94912.28;5028465;28;20025;-74
2021/04/08 03:09:46;;;;;;;1.70;1.30;;;;;;;23.20;36.89;94915.53;5027857;28;19975;-74
2021/04/08 03:12:13;;;;;;;1.30;0.95;;;;;;;23.18;36.92;94926.94;5027940;28;20025;-74
2021/04/08 03:14:57;;;;;;;1.77;1.27;;;;;;;23.19;36.71;94920.25;5044532;28;20124;-74
2021/04/08 03:17:28;;;;;;;1.52;1.10;;;;;;;23.20;36.52;94916.28;5011451;28;20049;-74
2021/04/08 03:19:54;;;;;;;2.65;1.30;;;;;;;23.19;36.95;94924.97;5027140;28;20103;-74
2021/04/08 03:22:20;;;;;;;2.63;1.55;;;;;;;23.18;36.62;94931.66;5044215;28;20538;-74
2021/04/08 03:24:45;;;;;;;1.77;1.27;;;;;;;23.20;36.84;94942.78;5044288;28;20034;-74
2021/04/08 03:27:11;;;;;;;1.77;1.40;;;;;;;23.17;36.89;94939.09;5027606;28;20044;-74
2021/04/08 03:29:38;;;;;;;1.83;1.20;;;;;;;23.21;36.48;94949.72;5034176;28;20437;-74
2021/04/08 03:32:04;;;;;;;1.90;1.33;;;;;;;23.20;36.92;94954.44;5027627;28;20462;-74
2021/04/08 03:34:30;;;;;;;1.67;1.27;;;;;;;23.21;36.56;94955.88;5027346;28;20048;-74
2021/04/08 03:36:55;;;;;;;1.58;1.10;;;;;;;23.20;36.85;94965.31;5027314;28;20053;-74
2021/04/08 03:39:20;;;;;;;2.22;1.38;;;;;;;23.19;36.93;94963.84;5028742;28;20029;-73
2021/04/08 03:41:46;;;;;;;2.05;1.60;;;;;;;22.99;36.74;94950.66;5037351;28;20037;-73
2021/04/08 03:44:13;;;;;;;1.70;1.20;;;;;;;23.14;36.82;94980.97;5024428;28;20028;-74
2021/04/08 03:46:40;;;;;;;2.03;1.50;;;;;;;23.17;36.61;94987.38;5010875;28;20025;-74
2021/04/08 03:49:07;;;;;;;1.80;1.27;;;;;;;23.18;36.49;94984.16;5027107;28;20025;-73
2021/04/08 03:51:33;;;;;;;2.05;1.40;;;;;;;23.17;36.67;94987.38;5043931;28;20017;-74
2021/04/08 03:53:59;;;;;;;2.00;1.30;;;;;;;23.11;36.58;94990.16;5043790;28;20078;-74
2021/04/08 03:56:24;;;;;;;1.98;1.30;;;;;;;23.19;36.48;94996.53;5027473;28;20013;-74
2021/04/08 03:58:51;;;;;;;1.67;1.30;;;;;;;23.17;36.73;94999.03;5028300;28;20099;-73
2021/04/08 04:01:17;;;;;;;1.85;1.40;;;;;;;23.18;36.54;95003.22;5043811;28;20734;-73
2021/04/08 04:03:42;;;;;;;2.15;1.50;;;;;;;23.18;36.72;95011.38;5043896;28;20049;-74
2021/04/08 04:06:09;;;;;;;1.63;1.40;;;;;;;23.17;36.61;95009.94;5046903;28;20024;-73
2021/04/08 04:08:34;;;;;;;1.98;1.40;;;;;;;23.08;36.43;94988.47;5014924;28;20025;-74
2021/04/08 04:11:00;;;;;;;1.80;1.23;;;;;;;23.13;36.76;95016.91;5030573;28;20029;-74
2021/04/08 04:13:25;;;;;;;1.60;1.20;;;;;;;23.09;36.55;95025.34;5047585;28;20029;-74
2021/04/08 04:15:51;;;;;;;1.15;0.98;;;;;;;23.03;36.66;95021.94;5014481;28;20041;-74
2021/04/08 04:18:19;;;;;;;1.77;1.40;;;;;;;22.87;36.79;95004.91;5032402;28;20013;-74
2021/04/08 04:20:44;;;;;;;1.65;1.30;;;;;;;23.00;36.83;95024.91;5032401;28;20065;-74
2021/04/08 04:23:10;;;;;;;1.98;1.10;;;;;;;23.00;37.15;95025.66;5030796;28;20034;-74
2021/04/08 04:25:35;;;;;;;1.77;1.33;;;;;;;23.00;36.60;95022.94;5007653;28;20077;-77
2021/04/08 04:28:01;;;;;;;1.52;1.30;;;;;;;23.14;36.55;95038.19;5036220;28;20040;-74
2021/04/08 04:30:26;;;;;;;7.30;1.20;;;;;;;23.17;36.75;95042.63;5054240;28;20025;-75
2021/04/08 04:32:55;;;;;;;1.92;1.10;;;;;;;23.16;36.77;95041.13;4964244;28;20046;-74
2021/04/08 04:35:20;;;;;;;2.13;1.38;;;;;;;23.29;36.57;95051.44;5028408;28;20057;-75
2021/04/08 04:37:47;;;;;;;1.75;1.38;;;;;;;23.33;36.55;95049.91;5047055;28;20113;-73
2021/04/08 04:40:12;;;;;;;2.20;1.38;;;;;;;23.37;36.42;95061.28;5038765;28;20060;-73
2021/04/08 04:42:38;;;;;;;1.50;1.08;;;;;;;23.37;36.36;95050.38;5031608;28;20105;-75
2021/04/08 04:45:05;;;;;;;1.75;1.20;;;;;;;23.39;36.35;95045.16;5030424;28;20028;-76
2021/04/08 04:47:30;;;;;;;2.17;1.30;;;;;;;23.45;36.50;95041.16;5042355;28;20028;-78
2021/04/08 04:49:56;;;;;;;2.38;1.20;;;;;;;23.62;36.34;95060.09;5036508;28;20104;-78
2021/04/08 04:52:21;;;;;;;1.60;1.20;;;;;;;23.69;36.09;95067.72;5028945;28;20498;-74
2021/04/08 04:54:47;;;;;;;1.92;1.20;;;;;;;23.79;35.96;95068.88;5029354;28;20044;-73
2021/04/08 04:57:12;;;;;;;1.80;1.38;;;;;;;23.87;36.04;95065.09;5027945;28;20497;-75
2021/04/08 04:59:37;;;;;;;2.08;1.20;;;;;;;23.88;35.60;95045.47;5030602;28;20033;-75
2021/04/08 05:02:03;;;;;;;1.70;1.20;;;;;;;24.02;35.22;95071.63;5036703;28;20098;-76
2021/04/08 05:04:29;;;;;;;2.20;1.20;;;;;;;23.99;35.43;95056.25;5061290;28;20098;-78
2021/04/08 05:06:54;;;;;;;1.83;1.23;;;;;;;24.12;35.52;95064.53;5027103;28;20033;-74
2021/04/08 05:09:19;;;;;;;2.25;1.30;;;;;;;24.27;35.33;95081.25;5030635;28;20013;-72
2021/04/08 05:11:45;;;;;;;3.17;1.60;;;;;;;24.37;34.88;95074.22;5025532;28;20461;-73
2021/04/08 05:14:10;;;;;;;2.40;1.60;;;;;;;24.44;34.55;95084.56;5046781;28;20382;-74
2021/04/08 05:16:36;;;;;;;2.03;1.50;;;;;;;24.54;34.81;95082.94;5024244;28;20564;-77
2021/04/08 05:19:05;;;;;;;2.22;1.30;;;;;;;24.60;34.62;95080.88;5031829;28;20049;-77
2021/04/08 05:21:30;;;;;;;2.40;1.30;;;;;;;24.72;34.26;95074.03;5024487;28;20056;-76
2021/04/08 05:23:56;;;;;;;1.75;1.23;;;;;;;24.72;34.00;95068.56;5030669;28;20022;-74
2021/04/08 05:26:21;;;;;;;2.25;1.52;;;;;;;24.83;33.73;95074.63;5019722;28;20418;-75
2021/04/08 05:28:47;;;;;;;2.28;1.20;;;;;;;24.94;34.06;95086.13;5028703;28;20494;-79
2021/04/08 05:31:12;;;;;;;1.83;1.10;;;;;;;24.98;33.79;95083.84;5021355;28;20087;-76
2021/04/08 05:33:37;;;;;;;1.73;1.30;;;;;;;25.01;33.69;95091.03;5027667;28;20112;-77
2021/04/08 05:36:03;;;;;;;2.00;1.35;;;;;;;25.10;33.62;95087.94;5029314;28;20033;-76
2021/04/08 05:38:29;;;;;;;2.13;1.50;;;;;;;25.17;33.97;95089.31;5041983;28;20016;-75
2021/04/08 05:40:54;;;;;;;2.67;1.50;;;;;;;25.20;33.81;95089.03;5041432;28;20018;-75
2021/04/08 05:43:20;;;;;;;3.53;1.67;;;;;;;25.18;33.80;95086.06;5048235;28;20482;-78
2021/04/08 05:45:46;;;;;;;2.20;1.40;;;;;;;25.26;34.37;95097.91;5035022;28;20772;-77
2021/04/08 05:48:15;;;;;;;2.90;1.35;;;;;;;25.34;34.29;95093.28;5045454;28;20474;-77
2021/04/08 05:50:41;;;;;;;3.72;1.63;;;;;;;25.43;34.21;95096.38;5038731;28;20025;-73
2021/04/08 05:53:06;;;;;;;4.85;1.58;;;;;;;25.52;33.76;95103.47;5046155;28;20078;-70
2021/04/08 05:55:32;;;;;;;2.97;1.70;;;;;;;25.50;34.03;95105.97;5041075;28;20025;-73
2021/04/08 05:57:57;;;;;;;2.05;1.30;;;;;;;25.47;34.15;95098.78;5045632;28;20025;-72
2021/04/08 06:00:23;;;;;;;2.60;1.58;;;;;;;25.62;34.28;95118.97;5042658;28;20457;-75
2021/04/08 06:02:48;;;;;;;4.25;1.90;;;;;;;25.67;33.79;95114.69;5036149;28;20572;-75
2021/04/08 06:05:14;;;;;;;2.50;1.40;;;;;;;25.75;34.16;95115.53;5027329;28;20049;-78
2021/04/08 06:07:40;;;;;;;4.32;1.85;;;;;;;25.49;32.82;95096.28;5036570;28;20025;-76
2021/04/08 06:10:06;;;;;;;2.78;1.45;;;;;;;25.71;33.71;95123.31;5041027;28;20127;-80
2021/04/08 06:12:31;;;;;;;3.83;1.60;;;;;;;25.75;33.84;95129.22;5045013;28;20031;-78
2021/04/08 06:14:57;;;;;;;3.83;1.58;;;;;;;25.61;33.63;95105.81;5046368;28;20120;-78
2021/04/08 06:17:23;;;;;;;3.00;1.60;;;;;;;25.84;33.94;95130.31;5026073;28;20029;-77
2021/04/08 06:19:48;;;;;;;2.63;1.20;;;;;;;25.91;33.80;95135.16;5041886;28;20841;-85
2021/04/08 06:22:14;;;;;;;12.32;4.97;;;;;;;25.65;26.65;95139.06;5022508;28;20124;-77
2021/04/08 06:24:39;;;;;;;9.25;2.78;;;;;;;25.48;31.05;95141.28;5028325;28;20272;-76
2021/04/08 06:27:06;;;;;;;5.47;2.10;;;;;;;25.65;32.92;95139.06;5039887;28;20517;-76
2021/04/08 06:29:31;;;;;;;4.22;1.90;;;;;;;25.74;32.99;95136.69;5044425;28;20759;-76
2021/04/08 06:31:57;;;;;;;4.35;1.90;;;;;;;25.81;33.08;95158.72;5042493;28;20029;-75
2021/04/08 06:34:22;;;;;;;5.15;2.00;;;;;;;25.83;32.90;95150.72;5050465;28;20029;-75
2021/04/08 06:36:48;;;;;;;4.50;1.65;;;;;;;25.89;32.71;95154.09;5041881;28;20044;-75
2021/04/08 06:39:13;;;;;;;4.22;2.03;;;;;;;25.93;32.65;95154.53;5051015;28;20418;-75
2021/04/08 06:41:39;;;;;;;5.75;2.03;;;;;;;26.04;32.64;95154.34;5054323;28;20029;-70
2021/04/08 06:44:11;;;;;;;3.50;1.90;;;;;;;26.08;32.38;95160.22;5044699;28;20112;-69
2021/04/08 06:46:40;;;;;;;3.20;1.70;;;;;;;26.03;32.57;95163.81;5053438;28;20040;-70
2021/04/08 06:49:05;;;;;;;2.50;1.70;;;;;;;25.91;32.57;95162.50;5011754;28;20053;-70
2021/04/08 06:51:32;;;;;;;3.30;1.63;;;;;;;25.90;32.70;95161.06;5039441;28;20033;-70
2021/04/08 06:54:01;;;;;;;3.78;1.67;;;;;;;25.88;32.73;95169.03;5046698;28;20029;-70
2021/04/08 06:56:29;;;;;;;3.08;1.60;;;;;;;25.90;32.37;95176.72;5037958;28;20035;-70
2021/04/08 06:58:55;;;;;;;2.75;1.70;;;;;;;25.85;32.56;95164.59;5043558;28;20028;-70
2021/04/08 07:01:21;;;;;;;3.58;1.90;;;;;;;25.77;32.40;95167.72;5038144;28;20017;-70
2021/04/08 07:03:46;;;;;;;3.13;1.67;;;;;;;25.82;32.49;95170.38;5026737;28;20041;-70
2021/04/08 07:06:12;;;;;;;4.03;1.73;;;;;;;25.79;32.20;95171.44;5037257;28;20119;-70
2021/04/08 07:08:37;;;;;;;4.53;2.47;;;;;;;25.74;32.78;95179.72;5045350;28;20028;-70
2021/04/08 07:11:02;;;;;;;3.97;2.00;;;;;;;25.73;32.60;95183.72;5052810;28;20078;-70
2021/04/08 07:13:29;;;;;;;5.80;1.80;;;;;;;25.70;32.78;95187.50;5060114;28;20086;-70
2021/04/08 07:15:58;;;;;;;3.85;1.85;;;;;;;25.62;32.41;95183.84;5037746;28;20029;-70
2021/04/08 07:18:24;;;;;;;5.65;1.85;;;;;;;25.56;32.59;95196.84;5045208;28;20016;-70
2021/04/08 07:20:50;;;;;;;4.70;1.80;;;;;;;25.46;32.96;95187.56;5037829;28;20021;-70
2021/04/08 07:23:15;;;;;;;3.15;2.00;;;;;;;25.43;33.23;95199.53;5036620;28;20085;-70
2021/04/08 07:25:59;;;;;;;3.13;1.83;;;;;;;25.29;33.08;95200.75;5056149;28;20052;-70
2021/04/08 07:28:35;;;;;;;5.10;2.30;;;;;;;25.31;33.39;95200.22;5042949;28;20021;-70
2021/04/08 07:31:23;;;;;;;3.92;1.70;;;;;;;25.27;33.14;95191.56;5039592;28;20022;-70
2021/04/08 07:33:50;;;;;;;4.45;1.95;;;;;;;25.23;33.36;95197.34;5042254;28;20037;-70
2021/04/08 07:36:39;;;;;;;5.10;1.90;;;;;;;25.16;33.35;95200.66;5039245;28;20028;-70
2021/04/08 07:39:17;;;;;;;3.92;1.75;;;;;;;25.14;33.72;95197.69;5040256;28;20112;-70
2021/04/08 07:41:43;;;;;;;5.15;1.90;;;;;;;25.11;33.78;95196.00;5037069;28;20409;-70
2021/04/08 07:44:12;;;;;;;3.92;1.77;;;;;;;25.10;33.50;95199.97;5042958;28;20017;-70
2021/04/08 07:46:42;;;;;;;5.00;2.35;;;;;;;25.06;33.42;95205.00;5034744;28;20033;-74
2021/04/08 07:49:26;;;;;;;3.75;2.15;;;;;;;25.06;34.02;95209.72;5038573;28;20033;-76
2021/04/08 07:51:52;;;;;;;4.10;2.00;;;;;;;25.00;34.90;95207.06;5038752;28;20025;-70
2021/04/08 07:54:18;;;;;;;4.38;2.20;;;;;;;24.93;35.03;95207.63;5027991;28;20033;-70
2021/04/08 07:56:44;;;;;;;4.85;2.10;;;;;;;24.89;34.85;95212.63;5035975;28;20105;-70
2021/04/08 07:59:16;;;;;;;3.67;1.83;;;;;;;24.84;35.47;95216.16;5032418;28;20033;-70
2021/04/08 08:01:44;;;;;;;5.47;2.00;;;;;;;24.82;35.05;95213.19;5038880;28;20024;-70
2021/04/08 08:04:21;;;;;;;3.45;1.90;;;;;;;24.82;35.58;95217.19;5043958;28;20045;-70
2021/04/08 08:06:47;;;;;;;3.33;2.05;;;;;;;24.81;35.14;95221.16;5039230;28;20382;-70
2021/04/08 08:09:12;;;;;;;5.50;2.33;;;;;;;24.85;35.05;95225.81;5036090;28;20025;-70
2021/04/08 08:11:41;;;;;;;4.50;1.85;;;;;;;24.87;35.12;95225.31;5035940;28;20021;-70
2021/04/08 08:14:06;;;;;;;3.88;1.80;;;;;;;24.86;35.17;95219.13;5056673;28;20131;-70
2021/04/08 08:16:32;;;;;;;3.47;1.73;;;;;;;24.84;35.15;95221.63;5034072;28;20025;-70
2021/04/08 08:18:58;;;;;;;3.08;2.05;;;;;;;24.85;35.28;95212.16;5041659;28;20029;-70
2021/04/08 08:21:36;;;;;;;3.15;1.80;;;;;;;24.82;35.12;95220.66;5035728;28;20109;-70
2021/04/08 08:24:21;;;;;;;4.70;1.90;;;;;;;24.80;34.80;95219.69;5040388;28;20024;-70
2021/04/08 08:26:47;;;;;;;3.38;1.77;;;;;;;24.78;34.69;95212.00;5037767;28;20072;-70
2021/04/08 08:29:16;;;;;;;4.13;1.75;;;;;;;24.78;34.90;95211.25;5042268;28;20090;-71
2021/04/08 08:31:43;;;;;;;3.77;1.93;;;;;;;24.73;34.59;95217.53;5037982;28;20502;-70
2021/04/08 08:34:25;;;;;;;3.20;1.67;;;;;;;24.73;34.83;95220.28;5039475;28;20029;-70
2021/04/08 08:36:52;;;;;;;4.65;2.10;;;;;;;24.68;35.28;95212.84;5037431;28;20082;-70
2021/04/08 08:39:21;;;;;;;5.35;2.40;;;;;;;24.64;34.72;95224.06;5043485;28;20029;-70
2021/04/08 08:41:47;;;;;;;2.72;1.80;;;;;;;24.62;34.65;95215.66;5034425;28;20516;-70
2021/04/08 08:44:13;;;;;;;4.30;2.10;;;;;;;24.62;35.20;95220.38;5041697;28;20021;-70
2021/04/08 08:46:43;;;;;;;3.42;1.88;;;;;;;24.64;35.00;95228.81;5035698;28;20033;-70
2021/04/08 08:49:08;;;;;;;3.05;2.00;;;;;;;24.64;34.69;95224.06;5017444;28;20029;-70
2021/04/08 08:51:36;;;;;;;4.43;2.10;;;;;;;24.53;34.87;95209.81;5055393;28;20051;-71
2021/04/08 08:54:01;;;;;;;3.47;2.00;;;;;;;24.66;35.22;95220.84;5025934;28;20027;-70
2021/04/08 08:56:27;;;;;;;3.70;2.13;;;;;;;24.63;34.76;95233.50;5017239;28;20013;-78
2021/04/08 08:58:53;;;;;;;7.47;2.80;;;;;;;24.42;29.45;95229.00;5030886;28;20048;-88
2021/04/08 09:01:22;;;;;;;5.75;2.40;;;;;;;24.43;33.62;95238.69;5027693;28;20018;-77
2021/04/08 09:03:48;;;;;;;5.68;2.08;;;;;;;24.40;35.31;95226.06;5032903;28;20139;-77
2021/04/08 09:06:14;;;;;;;4.80;2.00;;;;;;;24.43;35.77;95235.97;5028351;28;20041;-77
2021/04/08 09:08:43;;;;;;;4.72;2.03;;;;;;;24.41;35.80;95238.47;5028506;28;20029;-76
2021/04/08 09:11:13;;;;;;;3.03;1.80;;;;;;;24.34;35.87;95222.66;5029041;28;20395;-77
2021/04/08 09:13:40;;;;;;;3.80;1.90;;;;;;;24.41;36.14;95238.47;5028881;28;20022;-78
2021/04/08 09:16:13;;;;;;;4.05;1.60;;;;;;;24.28;36.18;95219.19;5024327;28;20045;-77
2021/04/08 09:18:38;;;;;;;2.47;1.70;;;;;;;24.37;36.39;95238.00;5045969;28;20022;-78
2021/04/08 09:21:04;;;;;;;3.70;2.00;;;;;;;24.36;35.94;95231.06;5019742;28;20410;-77
2021/04/08 09:23:30;;;;;;;3.33;1.73;;;;;;;24.36;36.35;95240.00;5031568;28;20554;-76
2021/04/08 09:25:56;;;;;;;3.70;1.83;;;;;;;24.30;36.00;95227.59;5014419;28;20489;-76
2021/04/08 09:28:22;;;;;;;2.90;1.77;;;;;;;24.32;36.45;95233.31;5031329;28;20021;-76
2021/04/08 09:33:20;;;;;;;3.33;2.00;;;;;;;24.23;36.42;95216.50;4983717;28;20071;-76
2021/04/08 09:35:46;;;;;;;3.33;1.80;;;;;;;24.24;36.42;95207.81;5042968;28;20095;-76
2021/04/08 09:38:11;;;;;;;2.67;1.52;;;;;;;24.32;36.36;95233.31;5037418;28;20025;-76
2021/04/08 09:40:38;;;;;;;2.88;1.63;;;;;;;24.26;36.63;95229.88;5028558;28;20061;-76
2021/04/08 09:43:08;;;;;;;4.03;2.05;;;;;;;24.24;36.54;95240.56;5029752;28;20048;-76
2021/04/08 09:45:41;;;;;;;3.25;1.75;;;;;;;24.15;36.55;95219.06;5026479;28;20568;-76
2021/04/08 09:48:21;;;;;;;2.78;1.58;;;;;;;24.28;36.93;95229.38;5030801;28;20020;-76
2021/04/08 09:50:59;;;;;;;2.83;1.90;;;;;;;24.31;36.95;95229.09;5035456;28;20041;-76
2021/04/08 09:53:26;;;;;;;4.13;2.00;;;;;;;24.44;36.90;95232.72;5029847;28;20033;-78
2021/04/08 09:55:55;;;;;;;4.65;1.80;;;;;;;24.56;36.20;95222.44;5035930;28;20552;-75
2021/04/08 09:58:23;;;;;;;3.80;1.90;;;;;;;24.67;35.92;95228.50;5039644;28;20032;-76
2021/04/08 10:00:49;;;;;;;3.38;1.90;;;;;;;24.72;35.92;95224.25;5042736;28;20383;-75
2021/04/08 10:03:25;;;;;;;3.45;1.55;;;;;;;24.79;35.68;95229.16;5044416;28;20036;-76
2021/04/08 10:05:50;;;;;;;2.90;1.80;;;;;;;24.93;36.18;95231.44;5036420;28;20021;-75
2021/04/08 10:08:20;;;;;;;2.60;1.60;;;;;;;25.01;35.99;95235.88;5049266;28;20079;-75
2021/04/08 10:10:45;;;;;;;2.55;1.70;;;;;;;25.06;35.64;95232.31;5027706;28;20040;-80
2021/04/08 10:13:15;;;;;;;2.42;1.63;;;;;;;25.15;35.33;95229.22;5019951;28;20025;-75
2021/04/08 10:15:40;;;;;;;3.97;1.77;;;;;;;25.13;35.55;95225.56;5039117;28;20037;-79
2021/04/08 10:18:22;;;;;;;4.82;1.77;;;;;;;25.27;35.34;95236.03;5065441;28;20040;-74
2021/04/08 10:20:49;;;;;;;3.75;1.90;;;;;;;25.35;35.03;95231.44;5040435;28;20025;-77
2021/04/08 10:23:30;;;;;;;3.72;1.67;;;;;;;25.41;34.96;95234.84;5040634;28;20486;-74
2021/04/08 10:26:00;;;;;;;2.65;1.70;;;;;;;25.52;32.99;95240.91;5028900;28;20073;-79
2021/04/08 10:28:26;;;;;;;3.50;1.40;;;;;;;25.50;34.08;95226.28;5022982;28;20021;-79
2021/04/08 10:30:51;;;;;;;2.42;1.40;;;;;;;25.64;34.35;95247.00;5007076;28;20053;-77
2021/04/08 10:33:18;;;;;;;2.80;1.75;;;;;;;25.79;34.30;95241.84;5028975;28;20130;-80
2021/04/08 10:35:44;;;;;;;3.55;1.50;;;;;;;25.92;34.29;95240.63;5040116;28;20025;-82
2021/04/08 10:38:09;;;;;;;2.63;1.58;;;;;;;25.94;34.36;95235.34;5041410;28;20010;-81
2021/04/08 10:40:35;;;;;;;2.22;1.55;;;;;;;26.00;34.02;95235.28;5036493;28;20022;-77
2021/04/08 10:43:27;;;;;;;3.60;1.50;;;;;;;26.15;33.90;95230.81;5040693;28;20100;-84
2021/04/08 10:45:56;;;;;;;3.47;1.80;;;;;;;26.15;33.80;95236.28;5023091;28;20045;-78
2021/04/08 10:48:25;;;;;;;2.58;1.60;;;;;;;26.18;33.54;95240.72;5029066;28;20091;-77
2021/04/08 10:50:51;;;;;;;3.58;1.60;;;;;;;26.22;33.77;95238.41;5007117;28;20495;-83
2021/04/08 10:53:25;;;;;;;2.45;1.70;;;;;;;26.32;33.58;95234.03;5035228;28;20037;-76
2021/04/08 10:55:51;;;;;;;2.28;1.48;;;;;;;26.31;33.54;95238.03;5025638;28;20041;-76
2021/04/08 10:58:34;;;;;;;2.30;1.38;;;;;;;26.26;33.46;95236.09;5022530;28;20029;-74
2021/04/08 11:00:59;;;;;;;3.05;1.65;;;;;;;26.29;33.10;95240.53;5020867;28;20040;-78
2021/04/08 11:03:25;;;;;;;2.88;1.85;;;;;;;26.27;33.24;95237.56;5026695;28;20045;-76
2021/04/08 11:05:50;;;;;;;3.35;1.58;;;;;;;26.36;32.80;95246.16;5029085;28;20033;-76
2021/04/08 11:08:16;;;;;;;2.63;1.50;;;;;;;26.47;32.82;95239.75;5031305;28;20036;-76
2021/04/08 11:10:41;;;;;;;3.53;1.73;;;;;;;26.51;32.84;95234.72;5026343;28;20034;-77
2021/04/08 11:13:09;;;;;;;3.30;1.42;;;;;;;26.53;32.57;95232.19;5024796;28;20033;-76
2021/04/08 11:15:35;;;;;;;2.92;1.55;;;;;;;26.58;32.51;95234.09;5026177;28;20847;-76
2021/04/08 11:18:19;;;;;;;2.70;1.58;;;;;;;26.49;32.47;95226.28;5038926;28;20039;-76
2021/04/08 11:20:46;;;;;;;3.53;1.63;;;;;;;26.59;32.23;95224.59;5002979;28;20022;-76
2021/04/08 11:23:12;;;;;;;3.03;1.38;;;;;;;26.71;31.94;95231.34;5031984;28;20024;-76
2021/04/08 11:25:38;;;;;;;2.72;1.48;;;;;;;26.61;31.89;95211.84;5031954;28;20149;-76
2021/04/08 11:28:04;;;;;;;3.83;1.80;;;;;;;26.68;32.10;95232.41;5025641;28;20044;-76
2021/04/08 11:30:38;;;;;;;2.83;1.70;;;;;;;26.67;32.04;95230.94;5026156;28;20036;-76
2021/04/08 11:33:08;;;;;;;3.08;1.50;;;;;;;26.66;31.98;95230.19;5038233;28;20067;-75
2021/04/08 11:35:42;;;;;;;5.10;1.70;;;;;;;26.64;32.41;95237.47;5039844;28;20589;-77
2021/04/08 11:38:20;;;;;;;2.83;1.52;;;;;;;26.71;32.26;95236.84;5030807;28;20039;-70
2021/04/08 11:40:50;;;;;;;3.08;1.67;;;;;;;26.75;32.02;95240.00;5021278;28;20028;-71